Time;durP1;ratioP1;P1;durP2;ratioP2;P2;SDS_P1;SDS_P2;PMS_P1;PMS_P2;Temp;Humidity;BMP_temperature;BMP_pressure;BME280_temperature;BME280_humidity;BME280_pressure;Samples;Min_cycle;Max_cycle;Signal;HPM_P1;HPM_P2
2023/08/31 00:01:09;;;;;;;8.83;8.03;;;;;;;17.79;62.84;100361.59;4967711;28;97025;-62
2023/08/31 00:03:35;;;;;;;9.17;8.27;;;;;;;17.77;62.83;100364.94;4960169;28;96706;-63
2023/08/31 00:06:04;;;;;;;9.13;8.23;;;;;;;17.76;63.11;100357.88;4971353;28;101357;-61
2023/08/31 00:08:29;;;;;;;7.60;6.90;;;;;;;17.73;62.92;100367.31;4964669;28;97372;-61
2023/08/31 00:11:00;;;;;;;9.50;8.50;;;;;;;17.74;63.01;100368.81;4963106;28;97080;-61
2023/08/31 00:13:26;;;;;;;8.23;7.53;;;;;;;17.71;62.81;100372.66;4965072;28;97522;-61
2023/08/31 00:15:55;;;;;;;8.10;7.37;;;;;;;17.70;62.95;100379.53;4966541;28;97867;-61
2023/08/31 00:18:20;;;;;;;7.97;7.30;;;;;;;17.67;62.94;100366.00;4966913;28;96854;-61
2023/08/31 00:20:46;;;;;;;6.53;5.93;;;;;;;17.64;62.78;100370.63;4966638;28;97444;-61
2023/08/31 00:23:11;;;;;;;7.87;7.03;;;;;;;17.63;62.95;100373.91;4966990;28;97419;-61
2023/08/31 00:25:36;;;;;;;7.73;6.97;;;;;;;17.60;62.95;100367.44;4965485;28;97607;-61
2023/08/31 00:28:04;;;;;;;7.70;7.00;;;;;;;17.58;62.97;100366.50;4967857;28;97160;-62
2023/08/31 00:30:31;;;;;;;5.57;5.10;;;;;;;17.55;62.95;100371.13;4969868;28;97256;-61
2023/08/31 00:32:59;;;;;;;7.53;6.17;;;;;;;17.49;62.92;100367.72;4964486;28;98037;-61
2023/08/31 00:35:26;;;;;;;6.20;5.70;;;;;;;17.47;62.91;100364.75;4963771;28;97137;-63
2023/08/31 00:37:51;;;;;;;5.53;5.10;;;;;;;17.44;62.95;100360.25;4968102;28;97277;-61
2023/08/31 00:40:16;;;;;;;6.13;5.53;;;;;;;17.40;62.85;100365.44;4967503;28;96819;-62
2023/08/31 00:42:42;;;;;;;6.10;5.50;;;;;;;17.38;62.80;100362.44;4968368;28;97361;-61
2023/08/31 00:45:08;;;;;;;6.00;5.50;;;;;;;17.31;62.97;100354.81;4965355;28;97278;-61
2023/08/31 00:47:33;;;;;;;5.77;5.13;;;;;;;17.30;62.79;100358.84;4969551;28;96742;-62
2023/08/31 00:49:59;;;;;;;5.70;5.20;;;;;;;17.27;62.85;100362.75;4972446;28;97075;-62
2023/08/31 00:52:25;;;;;;;5.97;5.47;;;;;;;17.26;62.90;100372.38;4968894;28;97342;-62
2023/08/31 00:54:52;;;;;;;5.50;5.00;;;;;;;17.25;62.90;100376.44;4968299;28;97098;-62
2023/08/31 00:57:17;;;;;;;8.13;5.43;;;;;;;17.25;62.69;100373.66;4969804;28;96778;-61
2023/08/31 00:59:43;;;;;;;4.70;4.30;;;;;;;17.25;62.88;100373.66;4968874;28;97302;-61
2023/08/31 01:02:40;;;;;;;7.80;4.80;;;;;;;17.23;63.22;100381.81;4967527;28;97830;-61
2023/08/31 01:05:24;;;;;;;5.63;4.03;;;;;;;17.20;63.24;100374.56;4967230;28;99009;-62
2023/08/31 01:08:07;;;;;;;5.13;4.60;;;;;;;17.19;62.89;100371.03;4966663;28;97090;-62
2023/08/31 01:10:42;;;;;;;4.47;4.07;;;;;;;17.15;62.80;100367.09;4957077;28;96980;-63
2023/08/31 01:13:13;;;;;;;6.10;4.20;;;;;;;17.15;62.97;100367.84;4970588;28;97406;-63
2023/08/31 01:15:44;;;;;;;4.80;4.30;;;;;;;17.14;62.94;100376.75;4971776;28;97150;-63
2023/08/31 01:18:11;;;;;;;4.90;3.97;;;;;;;17.11;62.90;100373.00;4968589;28;97076;-62
2023/08/31 01:20:58;;;;;;;5.97;4.50;;;;;;;17.10;63.07;100382.63;4967517;28;96811;-63
2023/08/31 01:23:35;;;;;;;4.27;3.87;;;;;;;17.08;62.99;100390.75;4964892;28;97265;-63
2023/08/31 01:26:01;;;;;;;4.33;4.03;;;;;;;17.05;62.89;100391.13;4962734;28;115997;-62
2023/08/31 01:28:27;;;;;;;4.80;4.27;;;;;;;17.00;62.90;100383.66;4966226;28;97044;-63
2023/08/31 01:30:52;;;;;;;4.37;3.70;;;;;;;17.00;62.88;100380.88;4965050;28;96980;-63
2023/08/31 01:33:17;;;;;;;5.77;4.47;;;;;;;16.98;62.87;100381.44;4964282;28;108205;-63
2023/08/31 01:35:48;;;;;;;5.60;4.00;;;;;;;16.96;62.79;100383.25;4966017;28;102689;-63
2023/08/31 01:38:22;;;;;;;8.23;3.50;;;;;;;16.94;62.81;100386.59;4968466;28;96777;-62
2023/08/31 01:40:56;;;;;;;3.47;3.27;;;;;;;16.88;62.88;100399.88;4970790;28;97424;-62
2023/08/31 01:43:23;;;;;;;5.10;4.00;;;;;;;16.86;62.80;100396.16;4969450;28;96989;-63
2023/08/31 01:45:48;;;;;;;5.70;4.10;;;;;;;16.82;62.95;100395.75;4965845;28;96901;-63
2023/08/31 01:48:15;;;;;;;7.30;3.97;;;;;;;16.82;63.00;100404.06;4967666;28;98528;-63
2023/08/31 01:50:41;;;;;;;4.60;4.23;;;;;;;16.81;62.89;100406.09;4966368;28;98863;-63
2023/08/31 01:53:06;;;;;;;4.40;3.60;;;;;;;16.78;62.87;100398.84;4965464;28;97705;-62
2023/08/31 01:55:32;;;;;;;4.20;3.80;;;;;;;16.74;62.82;100411.56;4968805;28;97108;-63
2023/08/31 01:57:58;;;;;;;4.43;4.03;;;;;;;16.74;62.89;100403.25;4969559;28;97107;-63
2023/08/31 02:00:25;;;;;;;6.50;3.80;;;;;;;16.72;62.89;100406.56;4964900;28;96690;-62
2023/08/31 02:02:50;;;;;;;4.00;3.57;;;;;;;16.69;62.74;100413.19;4967747;28;97762;-63
2023/08/31 02:05:16;;;;;;;4.00;3.70;;;;;;;16.65;62.79;100412.78;4970042;28;97275;-63
2023/08/31 02:07:41;;;;;;;3.30;3.00;;;;;;;16.63;62.83;100417.38;4968253;28;96807;-62
2023/08/31 02:10:07;;;;;;;3.70;3.40;;;;;;;16.59;62.76;100414.19;4966450;28;97107;-63
2023/08/31 02:12:33;;;;;;;3.60;3.37;;;;;;;16.57;62.80;100414.00;4964214;28;97732;-63
2023/08/31 02:14:59;;;;;;;4.10;3.53;;;;;;;16.54;62.80;100415.06;4966934;28;96775;-62
2023/08/31 02:17:25;;;;;;;5.30;3.47;;;;;;;16.46;62.77;100435.16;4965249;28;97203;-63
2023/08/31 02:19:51;;;;;;;5.13;3.70;;;;;;;16.43;62.72;100424.38;4968191;28;96911;-62
2023/08/31 02:22:16;;;;;;;3.10;2.90;;;;;;;16.39;62.81;100429.50;4967109;28;97961;-62
2023/08/31 02:24:41;;;;;;;3.63;3.33;;;;;;;16.35;62.91;100421.50;4968680;28;96704;-63
2023/08/31 02:27:07;;;;;;;3.70;3.40;;;;;;;16.34;62.89;100433.13;4967949;28;97954;-63
2023/08/31 02:29:32;;;;;;;3.83;3.53;;;;;;;16.29;62.91;100440.31;4967218;28;97249;-63
2023/08/31 02:31:58;;;;;;;4.73;3.80;;;;;;;16.28;62.93;100432.50;4965706;28;98025;-63
2023/08/31 02:34:23;;;;;;;4.43;4.03;;;;;;;16.22;62.79;100438.19;4964741;28;97346;-63
2023/08/31 02:36:48;;;;;;;3.67;3.27;;;;;;;16.22;62.86;100437.44;4969011;28;96722;-64
2023/08/31 02:39:14;;;;;;;3.67;3.37;;;;;;;16.19;62.86;100433.72;4964860;28;101669;-62
2023/08/31 02:41:39;;;;;;;3.50;3.20;;;;;;;16.19;62.84;100441.28;4967520;28;99799;-63
2023/08/31 02:44:05;;;;;;;3.90;3.60;;;;;;;16.17;62.89;100450.16;4968472;28;96962;-63
2023/08/31 02:46:30;;;;;;;7.00;4.07;;;;;;;16.16;62.95;100443.09;4971719;28;97125;-63
2023/08/31 02:48:56;;;;;;;4.00;3.60;;;;;;;16.15;62.89;100443.63;4968550;28;97171;-62
2023/08/31 02:51:21;;;;;;;6.47;3.67;;;;;;;16.09;62.84;100449.31;4968007;28;97216;-62
2023/08/31 02:53:47;;;;;;;4.30;3.90;;;;;;;16.13;62.88;100446.22;4970832;28;96780;-63
2023/08/31 02:56:12;;;;;;;3.80;3.50;;;;;;;16.13;62.92;100448.97;4967275;28;97181;-62
2023/08/31 02:58:38;;;;;;;6.07;3.93;;;;;;;16.10;63.03;100438.94;4962936;28;97279;-62
2023/08/31 03:01:13;;;;;;;4.77;4.27;;;;;;;16.13;63.11;100443.44;4963584;28;98401;-63
2023/08/31 03:03:39;;;;;;;4.67;4.17;;;;;;;16.12;63.14;100448.22;4966865;28;97154;-62
2023/08/31 03:06:09;;;;;;;5.80;4.30;;;;;;;16.12;62.72;100447.50;4971925;28;97110;-63
2023/08/31 03:08:36;;;;;;;3.83;3.50;;;;;;;16.03;62.73;100443.13;4964212;28;96975;-63
2023/08/31 03:11:05;;;;;;;4.43;3.83;;;;;;;16.03;62.78;100445.88;4968879;28;98039;-63
2023/08/31 03:13:33;;;;;;;4.63;3.90;;;;;;;16.00;62.88;100441.44;4962970;28;98611;-62
2023/08/31 03:16:00;;;;;;;5.80;4.20;;;;;;;15.98;62.84;100444.00;4967938;28;97928;-64
2023/08/31 03:18:26;;;;;;;5.33;3.93;;;;;;;15.97;62.99;100441.72;4970230;28;97120;-62
2023/08/31 03:20:51;;;;;;;7.23;3.57;;;;;;;15.98;62.86;100434.91;4966626;28;97288;-63
2023/08/31 03:23:17;;;;;;;5.03;3.70;;;;;;;15.95;62.89;100439.50;4967971;28;96829;-63
2023/08/31 03:25:42;;;;;;;4.50;4.10;;;;;;;15.93;62.80;100442.06;4966426;28;97560;-62
2023/08/31 03:28:08;;;;;;;4.47;3.73;;;;;;;15.95;62.95;100433.94;4966617;28;97248;-62
2023/08/31 03:30:33;;;;;;;4.20;3.73;;;;;;;15.95;63.03;100439.50;4967938;28;97322;-62
2023/08/31 03:32:59;;;;;;;7.50;4.17;;;;;;;15.95;63.12;100439.50;4965207;28;96778;-63
2023/08/31 03:35:27;;;;;;;3.97;3.57;;;;;;;15.92;62.83;100434.28;4967825;28;97332;-62
2023/08/31 03:37:53;;;;;;;6.90;3.03;;;;;;;15.88;62.79;100428.31;4969542;28;97478;-62
2023/08/31 03:40:19;;;;;;;10.00;3.40;;;;;;;15.86;62.92;100439.94;4968090;28;97258;-62
2023/08/31 03:42:44;;;;;;;3.90;3.60;;;;;;;15.84;62.99;100438.97;4966644;28;97256;-63
2023/08/31 03:45:09;;;;;;;4.43;3.43;;;;;;;15.82;62.88;100431.19;4964041;28;97011;-63
2023/08/31 03:47:35;;;;;;;7.70;3.87;;;;;;;15.81;62.69;100440.81;4959881;28;99355;-64
2023/08/31 03:50:00;;;;;;;3.97;2.97;;;;;;;15.80;62.92;100433.00;4963942;28;98003;-62
2023/08/31 03:52:26;;;;;;;3.43;3.23;;;;;;;15.78;62.89;100447.41;4967089;28;105864;-62
2023/08/31 03:54:52;;;;;;;3.83;3.53;;;;;;;15.77;62.89;100439.63;4971947;28;97290;-62
2023/08/31 03:57:17;;;;;;;4.37;3.50;;;;;;;15.73;62.91;100443.44;4964503;28;97172;-62
2023/08/31 03:59:42;;;;;;;3.40;3.20;;;;;;;15.69;62.90;100454.13;4960611;28;97363;-62
2023/08/31 04:02:08;;;;;;;5.33;3.33;;;;;;;15.66;63.03;100448.91;4961404;28;111880;-62
2023/08/31 04:04:33;;;;;;;4.27;2.60;;;;;;;15.65;62.99;100452.94;4961680;28;97065;-63
2023/08/31 04:06:59;;;;;;;3.47;3.23;;;;;;;15.61;63.01;100447.72;4957342;28;97226;-63
2023/08/31 04:09:24;;;;;;;3.73;2.90;;;;;;;15.60;62.88;100462.09;4960966;28;97252;-62
2023/08/31 04:11:50;;;;;;;3.77;3.40;;;;;;;15.55;62.89;100460.91;4964367;28;98973;-62
2023/08/31 04:14:15;;;;;;;4.20;2.80;;;;;;;15.52;62.89;100461.25;4967026;28;97155;-61
2023/08/31 04:16:40;;;;;;;3.87;3.57;;;;;;;15.50;63.00;100466.56;4969544;28;96844;-62
2023/08/31 04:19:06;;;;;;;2.80;2.60;;;;;;;15.49;62.83;100459.53;4970852;28;97432;-62
2023/08/31 04:21:31;;;;;;;3.97;3.37;;;;;;;15.44;62.76;100463.16;4968264;28;97025;-62
2023/08/31 04:23:59;;;;;;;3.40;3.10;;;;;;;15.41;62.74;100470.47;4967902;28;100056;-63
2023/08/31 04:26:25;;;;;;;3.73;3.43;;;;;;;15.38;62.88;100468.00;4969363;28;96563;-62
2023/08/31 04:28:50;;;;;;;6.07;3.97;;;;;;;15.36;62.87;100462.25;4969682;28;97402;-61
2023/08/31 04:31:15;;;;;;;4.73;3.37;;;;;;;15.34;62.75;100479.41;4969983;28;108760;-61
2023/08/31 04:33:40;;;;;;;3.93;3.63;;;;;;;15.31;62.72;100476.97;4973916;28;97108;-62
2023/08/31 04:36:06;;;;;;;4.67;3.63;;;;;;;15.27;62.67;100480.03;4966564;28;97773;-61
2023/08/31 04:38:32;;;;;;;4.63;3.17;;;;;;;15.24;62.53;100472.78;4968399;28;96915;-62
2023/08/31 04:41:01;;;;;;;3.97;3.43;;;;;;;15.21;62.72;100481.38;4970948;28;97631;-62
2023/08/31 04:43:27;;;;;;;4.73;3.93;;;;;;;15.16;62.78;100485.75;4971523;28;97181;-61
2023/08/31 04:45:53;;;;;;;3.80;3.50;;;;;;;15.15;62.82;100483.50;4967082;28;97484;-60
2023/08/31 04:48:18;;;;;;;4.40;4.00;;;;;;;15.13;62.84;100480.53;4963930;28;97486;-60
2023/08/31 04:50:44;;;;;;;3.90;3.60;;;;;;;15.10;62.81;100470.47;4967541;28;96763;-63
2023/08/31 04:53:09;;;;;;;4.60;3.50;;;;;;;15.09;62.85;100483.63;4968041;28;97050;-61
2023/08/31 04:55:34;;;;;;;4.10;3.70;;;;;;;15.09;62.88;100475.31;4971315;28;96995;-60
2023/08/31 04:58:00;;;;;;;4.47;3.30;;;;;;;15.10;62.80;100476.03;4974210;28;101128;-61
2023/08/31 05:00:25;;;;;;;4.43;3.93;;;;;;;15.08;62.89;100473.78;4972776;28;100264;-61
2023/08/31 05:02:50;;;;;;;4.10;3.80;;;;;;;15.08;62.79;100481.34;4966650;28;97065;-60
2023/08/31 05:05:18;;;;;;;4.33;3.67;;;;;;;15.06;62.94;100476.34;4966744;28;99222;-60
2023/08/31 05:07:44;;;;;;;3.47;3.17;;;;;;;15.05;62.97;100480.38;4969649;28;97185;-60
2023/08/31 05:10:09;;;;;;;4.57;4.07;;;;;;;15.03;62.89;100485.69;4966639;28;97083;-60
2023/08/31 05:12:35;;;;;;;5.27;3.33;;;;;;;15.00;62.81;100481.22;4966549;28;96900;-61
2023/08/31 05:15:00;;;;;;;4.23;3.90;;;;;;;15.02;62.84;100489.75;4967658;28;97392;-62
2023/08/31 05:17:25;;;;;;;4.40;4.10;;;;;;;15.03;62.99;100497.53;4964233;28;100367;-61
2023/08/31 05:19:51;;;;;;;4.60;4.13;;;;;;;15.02;62.93;100496.06;4966174;28;97685;-61
2023/08/31 05:22:17;;;;;;;5.20;4.67;;;;;;;15.04;63.07;100498.28;4967949;28;96992;-62
2023/08/31 05:24:42;;;;;;;4.07;3.67;;;;;;;15.08;63.22;100503.50;4973572;28;96875;-62
2023/08/31 05:27:08;;;;;;;6.30;5.70;;;;;;;15.10;63.23;100523.13;4963983;28;97368;-61
2023/08/31 05:29:33;;;;;;;5.47;4.97;;;;;;;15.14;63.28;100512.47;4968574;28;97174;-63
2023/08/31 05:31:58;;;;;;;5.43;4.93;;;;;;;15.17;63.26;100514.97;4968146;28;97480;-60
2023/08/31 05:34:25;;;;;;;4.33;4.03;;;;;;;15.21;63.21;100522.97;4970303;28;96682;-62
2023/08/31 05:36:50;;;;;;;6.07;4.50;;;;;;;15.24;63.29;100519.91;4969943;28;97466;-61
2023/08/31 05:39:16;;;;;;;9.53;4.80;;;;;;;15.26;63.19;100517.34;4966161;28;97528;-62
2023/08/31 05:41:43;;;;;;;7.53;4.10;;;;;;;15.29;63.37;100526.63;4969455;28;97165;-60
2023/08/31 05:44:09;;;;;;;4.90;4.53;;;;;;;15.33;63.51;100529.84;4970224;28;97338;-62
2023/08/31 05:46:34;;;;;;;5.17;4.67;;;;;;;15.35;63.65;100513.44;4966726;28;97524;-61
2023/08/31 05:49:00;;;;;;;5.80;5.30;;;;;;;15.39;63.54;100530.50;4972791;28;97153;-60
2023/08/31 05:51:25;;;;;;;4.77;4.30;;;;;;;15.44;63.56;100526.94;4968253;28;97973;-59
2023/08/31 05:53:51;;;;;;;5.93;4.53;;;;;;;15.48;63.71;100528.13;4967476;28;97521;-61
2023/08/31 05:56:16;;;;;;;6.40;4.70;;;;;;;15.53;63.73;100526.53;4967136;28;96920;-60
2023/08/31 05:58:41;;;;;;;4.67;4.27;;;;;;;15.57;63.85;100538.06;4971371;28;97161;-60
2023/08/31 06:01:07;;;;;;;5.47;4.87;;;;;;;15.63;63.81;100533.16;4965848;28;97213;-61
2023/08/31 06:03:33;;;;;;;6.10;4.53;;;;;;;15.69;63.80;100534.56;4967991;28;97306;-61
2023/08/31 06:05:59;;;;;;;6.17;4.50;;;;;;;15.75;63.83;100540.00;4967319;28;96760;-61
2023/08/31 06:08:25;;;;;;;5.63;4.97;;;;;;;15.80;63.82;100539.16;4965680;28;97238;-60
2023/08/31 06:10:50;;;;;;;4.90;4.37;;;;;;;15.83;63.83;100549.19;4963351;28;97185;-59
2023/08/31 06:13:16;;;;;;;9.27;4.10;;;;;;;15.87;64.03;100543.31;4965757;28;97694;-60
2023/08/31 06:15:41;;;;;;;6.07;5.47;;;;;;;15.95;64.01;100541.41;4968021;28;99287;-61
2023/08/31 06:18:07;;;;;;;7.10;4.90;;;;;;;16.00;64.03;100535.78;4969371;28;98474;-60
2023/08/31 06:20:32;;;;;;;5.77;4.70;;;;;;;16.11;63.98;100540.38;4968047;28;97035;-60
2023/08/31 06:22:59;;;;;;;5.70;4.73;;;;;;;16.18;63.78;100546.03;4967219;28;97130;-60
2023/08/31 06:25:24;;;;;;;5.83;5.23;;;;;;;16.23;63.92;100542.38;4970219;28;96860;-61
2023/08/31 06:27:49;;;;;;;5.27;4.77;;;;;;;16.27;63.98;100534.47;4967767;28;97092;-59
2023/08/31 06:30:18;;;;;;;5.40;4.90;;;;;;;16.33;63.95;100545.50;4967880;28;96953;-60
2023/08/31 06:32:44;;;;;;;6.40;5.10;;;;;;;16.38;63.92;100545.38;4970924;28;97026;-61
2023/08/31 06:35:17;;;;;;;5.17;4.70;;;;;;;16.39;63.86;100546.88;4967671;28;97523;-61
2023/08/31 06:37:43;;;;;;;5.30;4.80;;;;;;;16.39;63.88;100548.91;4964946;28;99734;-60
2023/08/31 06:40:09;;;;;;;5.40;4.90;;;;;;;16.38;63.91;100544.63;4963804;28;96761;-61
2023/08/31 06:42:38;;;;;;;8.33;4.70;;;;;;;16.43;63.99;100543.75;4969939;28;96766;-60
2023/08/31 06:45:06;;;;;;;6.17;4.60;;;;;;;16.47;63.95;100558.06;4964780;28;99175;-59
2023/08/31 06:47:31;;;;;;;5.90;4.77;;;;;;;16.51;64.03;100546.69;4960393;28;96977;-62
2023/08/31 06:50:00;;;;;;;5.20;4.70;;;;;;;16.61;63.93;100544.94;4962632;28;96697;-60
2023/08/31 06:52:26;;;;;;;6.67;5.50;;;;;;;16.68;63.90;100556.16;4967372;28;97143;-61
2023/08/31 06:54:55;;;;;;;5.97;5.10;;;;;;;16.76;63.88;100561.81;4965290;28;99209;-61
2023/08/31 06:57:21;;;;;;;9.33;5.43;;;;;;;16.81;63.80;100549.81;4967009;28;97329;-59
2023/08/31 06:59:47;;;;;;;7.20;4.70;;;;;;;16.84;63.83;100552.28;4971682;28;97026;-61
2023/08/31 07:02:12;;;;;;;7.10;5.50;;;;;;;16.87;63.78;100553.22;4965409;28;97335;-61
2023/08/31 07:04:37;;;;;;;6.07;5.40;;;;;;;16.89;63.81;100556.22;4966093;28;106712;-61
2023/08/31 07:07:04;;;;;;;5.90;4.93;;;;;;;16.87;63.78;100548.44;4970909;28;103628;-61
2023/08/31 07:09:30;;;;;;;5.90;5.30;;;;;;;16.87;63.75;100550.44;4964911;28;97351;-60
2023/08/31 07:11:55;;;;;;;7.50;5.27;;;;;;;16.86;63.85;100551.75;4963728;28;96792;-61
2023/08/31 07:14:21;;;;;;;7.00;5.23;;;;;;;16.87;63.92;100556.00;4963468;28;97247;-60
2023/08/31 07:16:46;;;;;;;6.10;5.53;;;;;;;16.93;63.83;100565.72;4965616;28;97303;-61
2023/08/31 07:19:11;;;;;;;6.00;5.50;;;;;;;16.97;63.83;100568.19;4965305;28;97518;-60
2023/08/31 07:21:37;;;;;;;7.70;6.80;;;;;;;16.98;63.82;100566.88;4967406;28;97042;-60
2023/08/31 07:24:02;;;;;;;8.93;5.80;;;;;;;17.04;63.81;100559.91;4967448;28;97740;-61
2023/08/31 07:26:28;;;;;;;7.47;6.10;;;;;;;17.11;63.89;100564.81;4964105;28;97418;-61
2023/08/31 07:28:54;;;;;;;8.40;6.60;;;;;;;17.19;63.76;100557.28;4966017;28;97014;-61
2023/08/31 07:31:19;;;;;;;7.00;6.40;;;;;;;17.32;63.89;100553.72;4967266;28;97370;-60
2023/08/31 07:33:45;;;;;;;10.50;6.80;;;;;;;17.42;63.78;100551.97;4964349;28;96762;-62
2023/08/31 07:36:10;;;;;;;8.43;7.57;;;;;;;17.46;63.62;100552.38;4962143;28;97347;-60
2023/08/31 07:38:36;;;;;;;7.77;6.97;;;;;;;17.48;63.59;100555.34;4954812;28;97351;-60
2023/08/31 07:41:01;;;;;;;8.43;7.63;;;;;;;17.47;63.67;100559.44;4963155;28;97044;-61
2023/08/31 07:43:26;;;;;;;7.50;6.77;;;;;;;17.51;63.58;100559.88;4955738;28;98844;-60
2023/08/31 07:45:55;;;;;;;7.77;7.07;;;;;;;17.58;63.59;100558.44;4964886;28;97354;-61
2023/08/31 07:48:21;;;;;;;8.70;7.47;;;;;;;17.62;63.54;100565.16;4968677;28;97259;-61
2023/08/31 07:50:48;;;;;;;9.77;8.83;;;;;;;17.71;63.50;100567.44;4969329;28;97203;-61
2023/08/31 07:53:14;;;;;;;8.30;7.50;;;;;;;17.74;63.35;100571.19;4964919;28;96793;-61
2023/08/31 07:55:39;;;;;;;11.53;10.27;;;;;;;17.64;63.38;100570.94;4967713;28;99901;-61
2023/08/31 07:58:05;;;;;;;10.10;9.13;;;;;;;17.56;63.48;100567.31;4969456;28;96950;-61
2023/08/31 08:00:30;;;;;;;10.37;9.37;;;;;;;17.51;63.60;100565.44;4967519;28;97261;-60
2023/08/31 08:02:55;;;;;;;11.30;10.10;;;;;;;17.47;63.62;100576.13;4969945;28;99111;-61
2023/08/31 08:05:21;;;;;;;12.77;11.47;;;;;;;17.48;63.61;100577.59;4967464;28;105121;-61
2023/08/31 08:07:47;;;;;;;12.20;11.00;;;;;;;17.54;63.67;100572.69;4966892;28;96942;-62
2023/08/31 08:10:12;;;;;;;13.30;11.30;;;;;;;17.59;63.65;100574.59;4960436;28;97167;-61
2023/08/31 08:12:44;;;;;;;13.00;11.50;;;;;;;17.58;63.50;100575.88;4965529;28;97393;-61
2023/08/31 08:15:10;;;;;;;12.47;11.27;;;;;;;17.61;63.57;100583.13;4969175;28;96733;-61
2023/08/31 08:17:35;;;;;;;14.80;11.43;;;;;;;17.62;63.54;100581.09;4970721;28;97172;-59
2023/08/31 08:20:01;;;;;;;12.77;11.50;;;;;;;17.61;63.40;100577.56;4970017;28;97223;-62
2023/08/31 08:22:26;;;;;;;11.83;10.63;;;;;;;17.62;63.63;100590.22;4969221;28;97243;-61
2023/08/31 08:24:51;;;;;;;11.50;10.40;;;;;;;17.65;63.43;100594.66;4970525;28;99004;-63
2023/08/31 08:27:20;;;;;;;17.00;10.47;;;;;;;17.73;63.51;100591.97;4968074;28;97007;-61
2023/08/31 08:29:46;;;;;;;11.60;10.50;;;;;;;17.85;63.63;100585.56;4967760;28;96646;-60
2023/08/31 08:32:12;;;;;;;10.50;9.50;;;;;;;17.98;63.30;100599.41;4970298;28;99329;-60
2023/08/31 08:34:37;;;;;;;12.80;9.30;;;;;;;18.06;63.16;100593.16;4969405;28;97503;-62
2023/08/31 08:37:05;;;;;;;11.57;10.50;;;;;;;18.18;63.23;100591.56;4968618;28;97251;-61
2023/08/31 08:39:31;;;;;;;11.43;10.23;;;;;;;18.34;62.88;100582.03;4968124;28;97092;-61
2023/08/31 08:41:58;;;;;;;11.03;9.93;;;;;;;18.48;62.77;100583.41;4968523;28;97232;-62
2023/08/31 08:44:25;;;;;;;10.17;9.10;;;;;;;18.67;62.62;100581.13;4966238;28;97723;-62
2023/08/31 08:46:52;;;;;;;9.57;8.57;;;;;;;18.83;62.34;100581.94;4966374;28;97126;-60
2023/08/31 08:49:19;;;;;;;10.93;9.83;;;;;;;18.95;62.50;100567.09;4966189;28;97203;-61
2023/08/31 08:51:46;;;;;;;9.40;8.40;;;;;;;19.08;61.71;100571.78;4968215;28;97517;-62
2023/08/31 08:54:12;;;;;;;9.67;7.97;;;;;;;19.20;61.88;100570.13;4968679;28;97153;-62
2023/08/31 08:56:38;;;;;;;9.33;8.53;;;;;;;19.20;61.63;100578.50;4970113;28;97391;-63
2023/08/31 08:59:03;;;;;;;9.20;8.30;;;;;;;19.09;61.25;100573.28;4970927;28;96806;-63
2023/08/31 09:01:29;;;;;;;8.93;8.17;;;;;;;18.98;61.25;100571.56;4966617;28;96982;-63
2023/08/31 09:03:54;;;;;;;7.60;6.90;;;;;;;18.85;61.27;100579.34;4966967;28;97169;-62
2023/08/31 09:06:20;;;;;;;9.50;7.50;;;;;;;18.74;61.30;100574.81;4967867;28;97098;-61
2023/08/31 09:08:53;;;;;;;7.43;6.80;;;;;;;18.66;61.66;100574.03;4968373;28;96958;-60
2023/08/31 09:11:20;;;;;;;8.90;7.63;;;;;;;18.61;61.97;100581.25;4964078;28;97840;-62
2023/08/31 09:13:45;;;;;;;8.60;7.60;;;;;;;18.55;61.89;100579.94;4972597;28;97661;-61
2023/08/31 09:16:28;;;;;;;8.80;8.00;;;;;;;18.48;61.77;100572.28;4965160;28;98474;-62
2023/08/31 09:18:54;;;;;;;8.63;7.60;;;;;;;18.48;61.93;100575.06;4966110;28;97309;-62
2023/08/31 09:21:21;;;;;;;7.93;6.97;;;;;;;18.49;62.02;100580.09;4969240;28;98013;-61
2023/08/31 09:23:58;;;;;;;7.00;6.40;;;;;;;18.49;61.68;100576.56;4967087;28;97014;-62
2023/08/31 09:26:24;;;;;;;6.57;5.97;;;;;;;18.51;61.99;100580.28;4969660;28;96751;-62
2023/08/31 09:28:50;;;;;;;6.50;5.90;;;;;;;18.55;61.93;100579.94;4969990;28;96810;-63
2023/08/31 09:31:16;;;;;;;8.03;6.80;;;;;;;18.57;61.78;100580.13;4967679;28;97233;-62
2023/08/31 09:33:51;;;;;;;6.83;6.23;;;;;;;18.64;61.78;100576.63;4965594;28;98818;-63
2023/08/31 09:36:16;;;;;;;6.87;6.37;;;;;;;18.73;61.71;100572.59;4967494;28;97202;-63
2023/08/31 09:38:46;;;;;;;6.80;6.20;;;;;;;18.90;61.87;100575.63;4969641;28;97197;-61
2023/08/31 09:41:12;;;;;;;6.50;5.90;;;;;;;19.02;61.41;100571.22;4968946;28;97893;-63
2023/08/31 09:43:37;;;;;;;6.73;6.13;;;;;;;19.16;61.48;100564.19;4965359;28;97334;-64
2023/08/31 09:46:04;;;;;;;6.10;5.60;;;;;;;19.32;61.15;100560.13;4968711;28;97266;-62
2023/08/31 09:48:30;;;;;;;5.03;4.63;;;;;;;19.52;61.05;100566.88;4969033;28;97620;-64
2023/08/31 09:50:57;;;;;;;5.60;5.20;;;;;;;19.69;60.62;100570.63;4967045;28;97179;-62
2023/08/31 09:53:24;;;;;;;5.10;4.60;;;;;;;19.85;60.16;100554.59;4969525;28;97044;-62
2023/08/31 09:55:52;;;;;;;5.07;4.60;;;;;;;19.86;59.77;100565.22;4965624;28;96990;-64
2023/08/31 09:58:19;;;;;;;4.60;4.30;;;;;;;19.89;59.98;100560.56;4966756;28;97079;-63
2023/08/31 10:00:46;;;;;;;4.83;4.43;;;;;;;19.98;59.68;100554.41;4965151;28;97938;-64
2023/08/31 10:03:15;;;;;;;4.60;4.20;;;;;;;20.04;59.78;100557.75;4969110;28;97290;-62
2023/08/31 10:05:43;;;;;;;5.00;4.47;;;;;;;19.99;59.35;100559.44;4965933;28;96960;-62
2023/08/31 10:08:09;;;;;;;3.93;3.63;;;;;;;19.95;59.34;100561.09;4966478;28;96939;-62
2023/08/31 10:10:36;;;;;;;4.47;4.07;;;;;;;19.90;59.24;100556.44;4969161;28;97155;-61
2023/08/31 10:13:04;;;;;;;4.67;3.83;;;;;;;19.91;59.48;100555.91;4966173;28;96799;-64
2023/08/31 10:15:39;;;;;;;3.60;3.30;;;;;;;19.98;59.17;100546.78;4966271;28;97166;-62
2023/08/31 10:18:06;;;;;;;5.30;3.37;;;;;;;19.98;59.16;100560.75;4968289;28;97050;-63
2023/08/31 10:20:33;;;;;;;2.83;2.63;;;;;;;19.92;58.70;100548.28;4968129;28;97777;-62
2023/08/31 10:23:03;;;;;;;3.47;2.13;;;;;;;19.84;58.85;100550.31;4955815;28;99311;-63
2023/08/31 10:25:54;;;;;;;2.20;2.00;;;;;;;19.71;57.50;100567.25;4967242;28;97396;-62
2023/08/31 10:28:23;;;;;;;1.97;1.83;;;;;;;19.55;58.50;100560.91;4968494;28;97183;-62
2023/08/31 10:31:06;;;;;;;3.53;2.23;;;;;;;19.42;58.62;100563.88;4967819;28;97361;-62
2023/08/31 10:33:34;;;;;;;2.90;2.20;;;;;;;19.35;59.33;100568.16;4966644;28;97719;-61
2023/08/31 10:35:59;;;;;;;1.90;1.80;;;;;;;19.20;59.15;100573.66;4969004;28;96648;-61
2023/08/31 10:38:26;;;;;;;3.10;1.80;;;;;;;19.11;59.53;100571.41;4965387;28;97313;-60
2023/08/31 10:41:07;;;;;;;3.40;1.80;;;;;;;18.99;60.71;100589.78;4964696;28;98142;-63
2023/08/31 10:43:45;;;;;;;5.10;1.93;;;;;;;18.84;60.87;100589.75;4965773;28;97160;-61
2023/08/31 10:46:17;;;;;;;2.93;2.03;;;;;;;18.81;61.02;100585.25;4964454;28;97105;-60
2023/08/31 10:48:53;;;;;;;2.07;1.80;;;;;;;18.82;61.18;100592.34;4967194;28;97005;-61
2023/08/31 10:51:22;;;;;;;3.97;2.10;;;;;;;18.83;60.86;100596.59;4965364;28;97306;-60
2023/08/31 10:53:47;;;;;;;3.60;2.27;;;;;;;18.89;61.22;100590.88;4963388;28;97187;-61
2023/08/31 10:56:16;;;;;;;3.07;2.57;;;;;;;19.06;61.24;100589.06;4955865;28;97311;-60
2023/08/31 10:58:41;;;;;;;2.10;2.00;;;;;;;19.13;61.18;100593.91;4965436;28;96614;-62
2023/08/31 11:01:07;;;;;;;2.17;2.07;;;;;;;19.10;61.24;100619.38;4966539;28;97543;-61
2023/08/31 11:03:32;;;;;;;2.80;1.70;;;;;;;18.98;61.33;100627.31;4967542;28;98189;-61
2023/08/31 11:05:57;;;;;;;1.70;1.60;;;;;;;18.88;61.30;100629.16;4966500;28;97192;-60
2023/08/31 11:08:23;;;;;;;1.30;0.97;;;;;;;18.80;61.21;100608.13;4967632;28;100005;-60
2023/08/31 11:10:49;;;;;;;1.30;0.80;;;;;;;18.72;61.23;100610.84;4970352;28;97184;-60
2023/08/31 11:13:19;;;;;;;2.40;0.73;;;;;;;18.69;61.36;100603.59;4966082;28;97110;-60
2023/08/31 11:15:48;;;;;;;4.13;1.20;;;;;;;18.67;61.23;100600.63;4968999;28;96789;-60
2023/08/31 11:18:17;;;;;;;1.07;0.53;;;;;;;18.69;61.18;100614.75;4968682;28;97059;-60
2023/08/31 11:20:43;;;;;;;0.90;0.67;;;;;;;18.82;61.07;100606.28;4963587;28;97460;-59
2023/08/31 11:23:08;;;;;;;1.10;1.00;;;;;;;18.97;60.82;100603.53;4964593;28;96774;-60